Energy Kinetics Inc.

Home | Contact Us


40 Shuman Blvd., Suite 160 littleBoxesOnTheHillside Naperville, Illinois 60563

Phone: 630.357.3770
Fax: 630.357.3819
sales@energy-kinetics.com

AXIAL BUMPERS - HIGH LOAD

TEMAX "A" Series High Capacity Axial Bumpers
Designed to provide maximum amount of Energy Absorption in the minimum amount of space and weight.

These elastomer bumpers, with their unique engineered shape, provide the highest capacity, for their weight and size, of any elastomer bumpers available. With Energy Absorption 2 to 3 times other materials, these bumpers offer the lowest rebound in a maintenance free, solid state package. Bumpers easily mounted with a single socket head cap screw.

View Manufacturers Cross Reference (PDF)

Click Part # to download specifications (PDF)

Part# Energy Capacity (In-Lb) Max. Force (Lb.) "A" Free Ht. (In.) "B" Free Bulge (In.) "C" Wrench Hole (In.) "D" Base Dia. (In.) "E" Mounting Hole (In.) "F" Solid Ht. (In.) "G" Bulge @ Solid (In.) "H" Base Thk. (In.) Weight (Oz.) Mounting Screw Size
Socket Head Cap Screw Mounting Torque (ft.lbs)
A-1 100 700 0.76 0.85 0.41 0.75 0.31 0.40 1.07 0.13 0.16 1/4-20 (5)
A-2 250 1200 1.01 1.11 0.56 0.98 0.31 0.53 1.43 0.16 0.37 1/4-20 (5)
A-3 400 2000 1.18 1.35 0.66 1.16 0.31 0.63 1.70 0.19 0.62 1/4-20 (5)
A-4 550 2400 1.31 1.47 0.72 1.28 0.31 0.69 1.88 0.21 0.86 1/4-20 (5)
A-5 700 2500 1.37 1.55 0.80 1.35 0.42 0.73 2.00 0.22 1.00 3/8-16 (12)
A-6 900 3600 1.49 1.70 0.80 1.48 0.42 0.80 2.15 0.24 1.40 3/8-16 (12)
A-7 1100 3300 1.62 1.83 0.93 1.61 0.55 0.86 2.33 0.26 1.70 1/2-13 (28)
A-8 1400 3800 1.77 1.96 1.02 1.71 0.55 0.92 2.51 0.28 2.00 1/2-13 (28)
A-9 1700 5000 1.86 2.08 1.04 1.85 0.55 0.99 2.69 0.30 2.20 1/2-13 (28)
A-10 2000 5000 2.02 2.25 1.16 1.97 0.55 1.06 2.86 0.32 3.10 1/2-13 (28)
A-11 2500 5300 2.11 2.43 1.23 2.08 0.55 1.12 3.05 0.34 3.70 1/2-13 (28)
A-12 3000 6100 2.26 2.54 1.30 2.23 0.55 1.19 3.22 0.36 4.60 1/2-13 (28)
A-13 3500 6600 2.38 2.70 1.38 2.35 0.55 1.25 3.40 0.38 5.10 1/2-13 (28)
A-14 4000 7500 2.54 2.81 1.41 2.46 0.81 1.32 3.58 0.40 6.10 3/4-10 (75)
A-15 5000 8300 2.72 3.10 1.57 2.71 0.81 1.45 3.94 0.44 7.80 3/4-10 (75)
A-16 6000 8700 2.91 3.22 1.69 2.82 0.81 1.52 4.12 0.46 9.10 3/4-10 (75)
A-17 7000 9600 3.00 3.35 1.70 2.95 0.81 1.58 4.30 0.48 10.60 3/4-10 (75)
A-18 8000 10800 3.13 3.50 1.78 3.07 0.81 1.65 4.48 0.50 11.80 3/4-10 (75)
A-19 10000 14000 3.37 3.83 1.92 3.34 0.81 1.78 4.83 0.54 14.90 3/4-10 (75)
A-20 17000 18000 3.98 4.56 2.26 3.93 0.81 2.11 5.73 0.65 26.10 3/4-10 (75)

AXIAL BUMPERS - LOW LOAD

TEMAX "A" Series Medium Capacity Axial Bumpers
Designed to provide a Significantly Lower End Load at an Intermediate Capacity with Slightly Longer Stroke.

View Manufacturers Cross Reference (PDF)

Click Part # to download specifications (PDF)

Part# Energy Capacity (In-Lb) Max. Force (Lb.) "A" Free Ht. (In.) "B" Free Bulge (In.) "C" Wrench Hole (In.) "D" Base Dia. (In.) "E" Mounting Hole (In.) "F" Solid Ht. (In.) "G" Bulge @ Solid (In.) "H" Base Thk. (In.) Weight (Oz.) Mounting Screw Size
Socket Head Cap Screw Mounting Torque (ft.lbs)
A-101 50 300 0.81 0.79 0.48 0.73 0.31 0.40 1.08 0.12 0.14 1/4-20 (5)
A-102 100 400 1.09 1.02 0.63 0.98 0.31 0.53 1.45 0.16 0.32 1/4-20 (5)
A-103 200 600 1.27 1.24 0.77 1.18 0.31 0.63 1.72 0.19 0.56 1/4-20 (5)
A-104 250 700 1.42 1.38 0.84 1.28 0.31 0.69 1.90 0.21 0.77 1/4-20 (5)
A-105 300 900 1.48 1.46 0.82 1.35 0.31 0.73 1.99 0.22 1.00 1/4-20 (5)
A-106 400 1000 1.63 1.60 0.93 1.48 0.56 0.79 2.17 0.24 1.30 1/2-13 (28)
A-107 550 1300 1.77 1.73 0.98 1.58 0.56 0.86 2.35 0.26 1.50 1/2-13 (28)
A-108 700 1600 1.91 1.88 1.09 1.73 0.56 0.92 2.53 0.28 2.10 1/2-13 (28)
A-109 800 1900 2.03 1.99 1.12 1.85 0.56 0.99 2.71 0.30 2.50 1/2-13 (28)
A-110 1000 2000 2.18 2.11 1.21 1.97 0.56 1.06 2.89 0.33 2.80 1/2-13 (28)
A-111 1200 2200 2.33 2.28 1.30 2.09 0.56 1.12 3.07 0.35 3.50 1/2-13 (28)
A-112 1400 2600 2.45 2.40 1.39 2.21 0.81 1.19 3.25 0.37 4.20 3/4-10 (75)
A-113 1700 3000 2.58 2.53 1.46 2.33 0.81 1.25 3.43 0.39 5.00 3/4-10 (75)
A-114 2000 3500 2.71 2.67 1.51 2.48 0.81 1.32 3.61 0.41 5.70 3/4-10 (75)
A-115 2500 3500 2.96 2.94 1.70 2.71 0.81 1.45 3.97 0.45 7.40 3/4-10 (75)
A-116 3000 3700 3.11 3.05 1.82 2.82 0.81 1.52 4.15 0.47 8.50 3/4-10 (75)
A-117 3500 4300 3.31 3.24 1.88 2.95 0.81 1.58 4.33 0.49 9.60 3/4-10 (75)
A-118 4000 4400 3.36 3.29 1.97 3.07 0.81 1.65 4.52 0.51 10.60 3/4-10 (75)
A-119 5000 5300 3.62 3.55 2.14 3.32 0.81 1.78 4.88 0.55 13.80 3/4-10 (75)
A-120 8000 5500 4.31 4.22 2.56 3.95 0.81 2.11 5.78 0.65 21.60 3/4-10 (75)

RADIAL BUMPERS

TEMAX "R" Series Radial Bumpers

View Manufacturers Cross Reference (PDF)

Click Part # to download specifications (PDF)

These elastomer bumpers provide long stroke with minimum End Load for a Soft Stop. This Long Stroke/Soft Stop feature has numerous applications in maintenance free Conveyor Systems. Bumpers are easily mounted in any orientation via a single head cap screw.

Part# Energy Capacity (In-Lb) Max. Force (Lb.) "A" Free Ht. (In.) "B" Free Bulge (In.) "C" Wrench Hole (In.) "D" Width (In.) "E" Mounting Hole (In.) "F" Solid Ht. (In.) "G" Bulge @ Solid (In.) "H" Base Thk. (In.) Weight (Oz.) Mounting Screw Size
Socket Head Cap Screw Mounting Torque (ft.lbs)
R-1 10 75 0.97 1.12 0.375 0.52 0.22 0.32 1.51 0.15 0.24 #10-24 (1.6)
R-2 20 100 1.25 1.44 0.375 0.76 0.22 0.41 1.96 0.20 0.48 #10-24 (1.6)
R-3 30 150 1.47 1.67 0.375 0.79 0.22 0.48 2.27 0.23 0.60 #10-24 (1.6)
R-4 50 200 1.72 1.95 0.375 1.36 0.22 0.37 2.68 0.16 0.90 #10-24 (1.6)
R-5 100 300 2.17 2.48 0.375 1.70 0.22 0.47 3.43 0.26 1.80 #10-24 (1.6)
R-6 200 475 2.31 2.61 0.375 1.82 0.22 0.74 3.47 0.35 2.80 #10-24 (1.6)
R-7 300 600 2.65 3.00 0.438 1.80 0.28 0.85 4.03 0.40 3.60 1/4-20 (5)
R-8 400 725 2.88 3.28 0.438 2.00 0.28 0.92 4.30 0.45 5.30 1/4-20 (5)
R-9 600 1000 2.88 3.33 0.625 2.65 0.40 0.92 4.37 0.45 6.90 3/8-16 (12)
R-10 800 1250 3.27 3.67 0.625 3.25 0.40 1.03 4.87 0.48 10.30 3/8-16 (12)
R-11 1000 1400 3.47 3.94 0.625 3.20 0.40 1.11 5.22 0.52 11.40 3/8-16 (12)

CRANE BUMPERS

TEMAX "CB" Series Bumpers

OSHA/CMNA Sizing Chart (PDF)

View Manufacturers Cross Reference (PDF)

Click Part # to download specifications (PDF)

Crane Bumpers
Part# Energy Capacity (Ft-Lb) Max. Force (Lb.) "A" Free Ht. (In.) "B" Free Bulge (In.) "C" Wrench Hole (In.) "D" Base Dia. (In.) "E" Mounting Hole (In.) "F" Solid Ht. (In.) "G" Bulge @ Solid (In.) "H" Base Thk. (In.) Weight (Oz.) Mounting Screw Size
Socket Head Cap Screw Mounting Torque (ft.lbs)
CB-1 330 18000 3.12 2.50 1.09 2.04 0.54 0.69 3.50 0.625 5.00 1/2-13 (60)
CB-2 720 37000 3.76 2.92 1.29 2.37 0.54 0.80 4.50 0.625 8.00 1/2-13 (60)
CB-3 1400 82000 3.72 3.34 1.45 2.70 0.54 0.80 5.00 0.625 10.00 1/2-13 (60)
CB-4* 1400 1E+05 2.09 4.25* 1.11 3.00 0.54 0.90 5.25 0.490 13.00 1/2-13 (60)
CB-5* 1200 1E+05 2.67 3.48* 1.26 2.64 0.54 0.75 4.88 0.530 9.00 1/2-13 (60)
CB-6* 1300 57000 3.32 3.94* 1.72 3.62 0.54 1.00 5.88 0.625 18.00 1/2-13 (60)
CB-7* 890 71000 2.25 3.45* 1.46 3.09 0.80 0.67 5.25 0.500 9.00 3/4-10 (200)
CB-8* 1450 50000 3.85 4.00* 1.60 3.24 0.54 1.38 5.50 0.660 18.00 1/2-13 (60)
CB-9 6140 2E+05 4.63 5.75 1.55 3.90 0.80 2.00 7.50 0.500 53.00 3/4-10 (200)
CB-10* 3130 1E+05 4.18 5.35* 1.69 4.16 0.80 1.63 7.00 0.500 38.00 3/4-10 (200)
CB-11* 2730 1E+05 5.08 4.56* 1.69 3.95 0.80 1.25 7.38 0.720 34.00 3/4-10 (200)
CB-12 5375 2E+05 7.31 5.50 2.52 4.62 0.80 1.63 8.44 1.000 55.00 3/4-10 (200)
CB-13* 4675 2E+05 4.50 5.40* 1.66 4.44 0.80 1.00 8.50 0.530 38.00 3/4-10 (200)
CB-14* 7440 2E+05 6.54 6.60* 2.78 5.77 0.80 1.65 10.25 1.000 82.00 3/4-10 (200)
CB-15 5350 1E+05 8.80 6.00 2.88 5.20 0.80 1.88 9.50 1.250 82.00 3/4-10 (200)
CB-16 6530 1E+05 9.50 5.88 2.90 5.19 0.80 2.50 8.81 1.500 91.00 3/4-10 (200)
CB-17 9375 2E+05 9.92 6.97 3.36 5.95 0.80 2.13 11.00 1.500 127.00 3/4-10 (200)